sensor_id;sensor_type;location;lat;lon;timestamp;P1;durP1;ratioP1;P2;durP2;ratioP2
12122;SDS011;6125;59.628;17.852;2023-04-01T00:01:00;2.47;;;1.37;;
12122;SDS011;6125;59.628;17.852;2023-04-01T00:03:28;1.73;;;1.37;;
12122;SDS011;6125;59.628;17.852;2023-04-01T00:05:58;2.10;;;1.30;;
12122;SDS011;6125;59.628;17.852;2023-04-01T00:08:26;1.63;;;1.30;;
12122;SDS011;6125;59.628;17.852;2023-04-01T00:10:54;7.40;;;1.37;;
12122;SDS011;6125;59.628;17.852;2023-04-01T00:13:24;2.37;;;1.60;;
12122;SDS011;6125;59.628;17.852;2023-04-01T00:15:51;3.10;;;1.60;;
12122;SDS011;6125;59.628;17.852;2023-04-01T00:18:18;2.13;;;1.40;;
12122;SDS011;6125;59.628;17.852;2023-04-01T00:20:46;1.73;;;1.40;;
12122;SDS011;6125;59.628;17.852;2023-04-01T00:23:14;2.03;;;1.30;;
12122;SDS011;6125;59.628;17.852;2023-04-01T00:25:42;1.97;;;1.37;;
12122;SDS011;6125;59.628;17.852;2023-04-01T00:28:10;2.03;;;1.40;;
12122;SDS011;6125;59.628;17.852;2023-04-01T00:30:38;2.13;;;1.30;;
12122;SDS011;6125;59.628;17.852;2023-04-01T00:33:05;1.50;;;1.17;;
12122;SDS011;6125;59.628;17.852;2023-04-01T00:35:33;3.60;;;1.30;;
12122;SDS011;6125;59.628;17.852;2023-04-01T00:38:00;1.50;;;1.33;;
12122;SDS011;6125;59.628;17.852;2023-04-01T00:40:28;2.77;;;1.93;;
12122;SDS011;6125;59.628;17.852;2023-04-01T00:42:57;2.13;;;1.67;;
12122;SDS011;6125;59.628;17.852;2023-04-01T00:45:27;4.57;;;2.60;;
12122;SDS011;6125;59.628;17.852;2023-04-01T00:48:01;6.87;;;2.97;;
12122;SDS011;6125;59.628;17.852;2023-04-01T00:50:31;3.13;;;2.37;;
12122;SDS011;6125;59.628;17.852;2023-04-01T00:53:00;4.00;;;1.80;;
12122;SDS011;6125;59.628;17.852;2023-04-01T00:55:29;6.43;;;1.70;;
12122;SDS011;6125;59.628;17.852;2023-04-01T00:57:58;3.33;;;1.60;;
12122;SDS011;6125;59.628;17.852;2023-04-01T01:00:28;2.00;;;1.43;;
12122;SDS011;6125;59.628;17.852;2023-04-01T01:02:56;1.93;;;1.50;;
12122;SDS011;6125;59.628;17.852;2023-04-01T01:05:28;2.63;;;1.30;;
12122;SDS011;6125;59.628;17.852;2023-04-01T01:08:06;2.37;;;1.43;;
12122;SDS011;6125;59.628;17.852;2023-04-01T01:10:40;3.03;;;1.63;;
12122;SDS011;6125;59.628;17.852;2023-04-01T01:13:14;1.53;;;1.40;;
12122;SDS011;6125;59.628;17.852;2023-04-01T01:15:44;2.20;;;1.50;;
12122;SDS011;6125;59.628;17.852;2023-04-01T01:18:15;2.13;;;1.40;;
12122;SDS011;6125;59.628;17.852;2023-04-01T01:20:53;2.80;;;1.27;;
12122;SDS011;6125;59.628;17.852;2023-04-01T01:26:37;2.70;;;1.50;;
12122;SDS011;6125;59.628;17.852;2023-04-01T01:29:16;2.40;;;1.37;;
12122;SDS011;6125;59.628;17.852;2023-04-01T01:32:06;1.17;;;1.00;;
12122;SDS011;6125;59.628;17.852;2023-04-01T01:34:45;2.10;;;1.70;;
12122;SDS011;6125;59.628;17.852;2023-04-01T01:37:20;2.67;;;1.47;;
12122;SDS011;6125;59.628;17.852;2023-04-01T01:39:52;1.23;;;1.00;;
12122;SDS011;6125;59.628;17.852;2023-04-01T01:42:22;5.60;;;1.90;;
12122;SDS011;6125;59.628;17.852;2023-04-01T01:44:52;2.63;;;1.70;;
12122;SDS011;6125;59.628;17.852;2023-04-01T01:47:27;1.83;;;1.40;;
12122;SDS011;6125;59.628;17.852;2023-04-01T01:49:55;3.07;;;1.40;;
12122;SDS011;6125;59.628;17.852;2023-04-01T01:52:26;1.67;;;1.57;;
12122;SDS011;6125;59.628;17.852;2023-04-01T01:54:55;2.17;;;1.27;;
12122;SDS011;6125;59.628;17.852;2023-04-01T01:57:24;2.27;;;1.50;;
12122;SDS011;6125;59.628;17.852;2023-04-01T01:59:55;1.50;;;1.20;;
12122;SDS011;6125;59.628;17.852;2023-04-01T02:02:26;3.60;;;1.80;;
12122;SDS011;6125;59.628;17.852;2023-04-01T02:04:56;5.30;;;1.40;;
12122;SDS011;6125;59.628;17.852;2023-04-01T02:07:27;2.70;;;1.27;;
12122;SDS011;6125;59.628;17.852;2023-04-01T02:09:57;3.20;;;1.70;;
12122;SDS011;6125;59.628;17.852;2023-04-01T02:12:25;2.50;;;1.10;;
12122;SDS011;6125;59.628;17.852;2023-04-01T02:14:55;2.97;;;1.90;;
12122;SDS011;6125;59.628;17.852;2023-04-01T02:17:27;3.07;;;1.63;;
12122;SDS011;6125;59.628;17.852;2023-04-01T02:19:56;2.30;;;1.53;;
12122;SDS011;6125;59.628;17.852;2023-04-01T02:22:27;3.93;;;1.80;;
12122;SDS011;6125;59.628;17.852;2023-04-01T02:24:57;2.50;;;1.53;;
12122;SDS011;6125;59.628;17.852;2023-04-01T02:27:27;3.67;;;2.03;;
12122;SDS011;6125;59.628;17.852;2023-04-01T02:29:54;6.50;;;2.20;;
12122;SDS011;6125;59.628;17.852;2023-04-01T02:32:21;3.77;;;1.70;;
12122;SDS011;6125;59.628;17.852;2023-04-01T02:34:49;3.93;;;1.90;;
12122;SDS011;6125;59.628;17.852;2023-04-01T02:37:16;3.53;;;1.70;;
12122;SDS011;6125;59.628;17.852;2023-04-01T02:39:45;2.13;;;1.63;;
12122;SDS011;6125;59.628;17.852;2023-04-01T02:42:13;2.63;;;1.50;;
12122;SDS011;6125;59.628;17.852;2023-04-01T02:44:40;2.50;;;1.40;;
12122;SDS011;6125;59.628;17.852;2023-04-01T02:47:07;1.30;;;1.17;;
12122;SDS011;6125;59.628;17.852;2023-04-01T02:49:34;1.93;;;1.30;;
12122;SDS011;6125;59.628;17.852;2023-04-01T02:52:01;1.60;;;1.47;;
12122;SDS011;6125;59.628;17.852;2023-04-01T02:54:28;5.53;;;1.40;;
12122;SDS011;6125;59.628;17.852;2023-04-01T02:56:57;6.03;;;1.37;;
12122;SDS011;6125;59.628;17.852;2023-04-01T02:59:24;7.00;;;1.80;;
12122;SDS011;6125;59.628;17.852;2023-04-01T03:01:51;2.13;;;1.13;;
12122;SDS011;6125;59.628;17.852;2023-04-01T03:04:18;1.30;;;1.07;;
12122;SDS011;6125;59.628;17.852;2023-04-01T03:06:45;1.50;;;1.03;;
12122;SDS011;6125;59.628;17.852;2023-04-01T03:09:12;1.50;;;1.13;;
12122;SDS011;6125;59.628;17.852;2023-04-01T03:11:40;2.10;;;1.47;;
12122;SDS011;6125;59.628;17.852;2023-04-01T03:14:08;1.67;;;1.40;;
12122;SDS011;6125;59.628;17.852;2023-04-01T03:16:35;3.13;;;1.03;;
12122;SDS011;6125;59.628;17.852;2023-04-01T03:19:02;2.20;;;1.30;;
12122;SDS011;6125;59.628;17.852;2023-04-01T03:21:29;2.30;;;1.57;;
12122;SDS011;6125;59.628;17.852;2023-04-01T03:23:56;1.23;;;1.13;;
12122;SDS011;6125;59.628;17.852;2023-04-01T03:26:24;3.90;;;1.77;;
12122;SDS011;6125;59.628;17.852;2023-04-01T03:28:52;2.57;;;1.77;;
12122;SDS011;6125;59.628;17.852;2023-04-01T03:31:21;4.40;;;1.63;;
12122;SDS011;6125;59.628;17.852;2023-04-01T03:33:48;4.43;;;1.53;;
12122;SDS011;6125;59.628;17.852;2023-04-01T03:36:15;4.77;;;1.70;;
12122;SDS011;6125;59.628;17.852;2023-04-01T03:38:43;4.73;;;1.70;;
12122;SDS011;6125;59.628;17.852;2023-04-01T03:41:11;1.73;;;1.50;;
12122;SDS011;6125;59.628;17.852;2023-04-01T03:43:38;4.63;;;1.50;;
12122;SDS011;6125;59.628;17.852;2023-04-01T03:46:05;4.83;;;1.50;;
12122;SDS011;6125;59.628;17.852;2023-04-01T03:48:34;2.00;;;1.40;;
12122;SDS011;6125;59.628;17.852;2023-04-01T03:51:01;2.07;;;1.40;;
12122;SDS011;6125;59.628;17.852;2023-04-01T03:53:32;2.20;;;1.40;;
12122;SDS011;6125;59.628;17.852;2023-04-01T03:56:02;2.10;;;1.20;;
12122;SDS011;6125;59.628;17.852;2023-04-01T03:58:30;5.00;;;1.80;;
12122;SDS011;6125;59.628;17.852;2023-04-01T04:00:57;1.97;;;1.40;;
12122;SDS011;6125;59.628;17.852;2023-04-01T04:03:24;4.30;;;1.30;;
12122;SDS011;6125;59.628;17.852;2023-04-01T04:05:53;2.07;;;1.50;;
12122;SDS011;6125;59.628;17.852;2023-04-01T04:08:21;4.03;;;1.30;;
12122;SDS011;6125;59.628;17.852;2023-04-01T04:10:53;4.63;;;1.30;;
12122;SDS011;6125;59.628;17.852;2023-04-01T04:13:21;1.77;;;1.20;;
12122;SDS011;6125;59.628;17.852;2023-04-01T04:15:48;1.87;;;1.40;;
12122;SDS011;6125;59.628;17.852;2023-04-01T04:18:15;9.87;;;3.37;;
12122;SDS011;6125;59.628;17.852;2023-04-01T04:20:43;1.57;;;1.10;;
12122;SDS011;6125;59.628;17.852;2023-04-01T04:23:13;2.17;;;1.27;;
12122;SDS011;6125;59.628;17.852;2023-04-01T04:25:40;1.73;;;1.37;;
12122;SDS011;6125;59.628;17.852;2023-04-01T04:28:07;1.70;;;1.23;;
12122;SDS011;6125;59.628;17.852;2023-04-01T04:30:34;1.40;;;1.13;;
12122;SDS011;6125;59.628;17.852;2023-04-01T04:33:01;4.13;;;1.77;;
12122;SDS011;6125;59.628;17.852;2023-04-01T04:35:28;3.33;;;1.40;;
12122;SDS011;6125;59.628;17.852;2023-04-01T04:37:55;1.43;;;1.27;;
12122;SDS011;6125;59.628;17.852;2023-04-01T04:40:24;6.17;;;3.03;;
12122;SDS011;6125;59.628;17.852;2023-04-01T04:42:51;8.00;;;3.10;;
12122;SDS011;6125;59.628;17.852;2023-04-01T04:45:18;7.00;;;2.53;;
12122;SDS011;6125;59.628;17.852;2023-04-01T04:47:45;2.20;;;1.70;;
12122;SDS011;6125;59.628;17.852;2023-04-01T04:50:12;2.33;;;1.90;;
12122;SDS011;6125;59.628;17.852;2023-04-01T04:52:39;1.93;;;1.37;;
12122;SDS011;6125;59.628;17.852;2023-04-01T04:55:06;1.73;;;1.30;;
12122;SDS011;6125;59.628;17.852;2023-04-01T04:57:35;1.87;;;1.40;;
12122;SDS011;6125;59.628;17.852;2023-04-01T05:00:02;2.20;;;1.30;;
12122;SDS011;6125;59.628;17.852;2023-04-01T05:02:31;2.50;;;1.53;;
12122;SDS011;6125;59.628;17.852;2023-04-01T05:04:58;4.00;;;1.47;;
12122;SDS011;6125;59.628;17.852;2023-04-01T05:07:25;2.13;;;1.40;;
12122;SDS011;6125;59.628;17.852;2023-04-01T05:09:52;1.50;;;1.40;;
12122;SDS011;6125;59.628;17.852;2023-04-01T05:12:19;2.13;;;1.93;;
12122;SDS011;6125;59.628;17.852;2023-04-01T05:14:47;2.20;;;1.60;;
12122;SDS011;6125;59.628;17.852;2023-04-01T05:17:14;3.30;;;1.57;;
12122;SDS011;6125;59.628;17.852;2023-04-01T05:19:41;9.30;;;1.57;;
12122;SDS011;6125;59.628;17.852;2023-04-01T05:22:08;3.67;;;1.70;;
12122;SDS011;6125;59.628;17.852;2023-04-01T05:24:35;3.90;;;1.37;;
12122;SDS011;6125;59.628;17.852;2023-04-01T05:27:02;3.83;;;2.13;;
12122;SDS011;6125;59.628;17.852;2023-04-01T05:29:31;2.33;;;1.50;;
12122;SDS011;6125;59.628;17.852;2023-04-01T05:32:00;3.03;;;2.00;;
12122;SDS011;6125;59.628;17.852;2023-04-01T05:34:27;3.83;;;1.73;;
12122;SDS011;6125;59.628;17.852;2023-04-01T05:36:54;7.47;;;2.00;;
12122;SDS011;6125;59.628;17.852;2023-04-01T05:39:21;3.20;;;2.10;;
12122;SDS011;6125;59.628;17.852;2023-04-01T05:41:48;3.13;;;1.97;;
12122;SDS011;6125;59.628;17.852;2023-04-01T05:44:15;3.43;;;1.43;;
12122;SDS011;6125;59.628;17.852;2023-04-01T05:46:42;4.13;;;1.53;;
12122;SDS011;6125;59.628;17.852;2023-04-01T05:49:11;4.13;;;1.53;;
12122;SDS011;6125;59.628;17.852;2023-04-01T05:51:38;2.23;;;1.60;;
12122;SDS011;6125;59.628;17.852;2023-04-01T05:54:05;1.83;;;1.63;;
12122;SDS011;6125;59.628;17.852;2023-04-01T05:56:32;3.40;;;2.40;;
12122;SDS011;6125;59.628;17.852;2023-04-01T05:58:59;3.70;;;2.23;;
12122;SDS011;6125;59.628;17.852;2023-04-01T06:01:26;4.13;;;2.40;;
12122;SDS011;6125;59.628;17.852;2023-04-01T06:03:53;3.53;;;2.27;;
12122;SDS011;6125;59.628;17.852;2023-04-01T06:06:24;2.93;;;1.63;;
12122;SDS011;6125;59.628;17.852;2023-04-01T06:08:53;3.67;;;1.90;;
12122;SDS011;6125;59.628;17.852;2023-04-01T06:11:24;2.10;;;1.80;;
12122;SDS011;6125;59.628;17.852;2023-04-01T06:14:03;2.10;;;1.40;;
12122;SDS011;6125;59.628;17.852;2023-04-01T06:16:40;2.23;;;1.60;;
12122;SDS011;6125;59.628;17.852;2023-04-01T06:19:25;2.17;;;1.60;;
12122;SDS011;6125;59.628;17.852;2023-04-01T06:22:11;2.27;;;1.63;;
12122;SDS011;6125;59.628;17.852;2023-04-01T06:24:54;1.47;;;1.37;;
12122;SDS011;6125;59.628;17.852;2023-04-01T06:27:39;4.27;;;2.13;;
12122;SDS011;6125;59.628;17.852;2023-04-01T06:33:09;2.03;;;1.60;;
12122;SDS011;6125;59.628;17.852;2023-04-01T06:35:55;1.67;;;1.53;;
12122;SDS011;6125;59.628;17.852;2023-04-01T06:38:44;2.47;;;1.50;;
12122;SDS011;6125;59.628;17.852;2023-04-01T06:44:34;4.07;;;1.93;;
12122;SDS011;6125;59.628;17.852;2023-04-01T06:47:11;2.93;;;1.70;;
12122;SDS011;6125;59.628;17.852;2023-04-01T06:49:51;2.50;;;1.73;;
12122;SDS011;6125;59.628;17.852;2023-04-01T06:52:24;3.40;;;1.87;;
12122;SDS011;6125;59.628;17.852;2023-04-01T06:54:59;3.30;;;1.60;;
12122;SDS011;6125;59.628;17.852;2023-04-01T06:57:32;2.07;;;1.50;;
12122;SDS011;6125;59.628;17.852;2023-04-01T07:00:11;2.43;;;1.60;;
12122;SDS011;6125;59.628;17.852;2023-04-01T07:02:41;3.10;;;1.70;;
12122;SDS011;6125;59.628;17.852;2023-04-01T07:05:18;4.00;;;1.70;;
12122;SDS011;6125;59.628;17.852;2023-04-01T07:07:47;2.23;;;1.50;;
12122;SDS011;6125;59.628;17.852;2023-04-01T07:10:20;2.53;;;1.20;;
12122;SDS011;6125;59.628;17.852;2023-04-01T07:12:53;4.03;;;1.43;;
12122;SDS011;6125;59.628;17.852;2023-04-01T07:15:24;6.77;;;1.50;;
12122;SDS011;6125;59.628;17.852;2023-04-01T07:17:55;4.23;;;1.50;;
12122;SDS011;6125;59.628;17.852;2023-04-01T07:20:25;2.70;;;1.67;;
12122;SDS011;6125;59.628;17.852;2023-04-01T07:22:57;4.03;;;1.60;;
12122;SDS011;6125;59.628;17.852;2023-04-01T07:25:28;3.33;;;1.30;;
12122;SDS011;6125;59.628;17.852;2023-04-01T07:28:00;5.30;;;1.30;;
12122;SDS011;6125;59.628;17.852;2023-04-01T07:30:32;4.23;;;1.40;;
12122;SDS011;6125;59.628;17.852;2023-04-01T07:33:11;3.63;;;1.30;;
12122;SDS011;6125;59.628;17.852;2023-04-01T07:35:43;1.93;;;1.47;;
12122;SDS011;6125;59.628;17.852;2023-04-01T07:38:16;5.57;;;1.30;;
12122;SDS011;6125;59.628;17.852;2023-04-01T07:40:55;4.47;;;1.50;;
12122;SDS011;6125;59.628;17.852;2023-04-01T07:43:35;4.90;;;1.60;;
12122;SDS011;6125;59.628;17.852;2023-04-01T07:46:14;3.77;;;1.50;;
12122;SDS011;6125;59.628;17.852;2023-04-01T07:48:51;8.53;;;1.63;;
12122;SDS011;6125;59.628;17.852;2023-04-01T07:51:24;2.10;;;1.40;;
12122;SDS011;6125;59.628;17.852;2023-04-01T07:53:59;4.20;;;1.57;;
12122;SDS011;6125;59.628;17.852;2023-04-01T07:56:35;1.37;;;1.20;;
12122;SDS011;6125;59.628;17.852;2023-04-01T07:59:11;2.87;;;1.27;;
12122;SDS011;6125;59.628;17.852;2023-04-01T08:01:45;1.17;;;1.07;;
12122;SDS011;6125;59.628;17.852;2023-04-01T08:07:15;6.33;;;1.10;;
12122;SDS011;6125;59.628;17.852;2023-04-01T08:09:48;1.60;;;1.23;;
12122;SDS011;6125;59.628;17.852;2023-04-01T08:12:26;1.80;;;1.00;;
12122;SDS011;6125;59.628;17.852;2023-04-01T08:15:05;1.83;;;1.10;;
12122;SDS011;6125;59.628;17.852;2023-04-01T08:17:40;3.57;;;1.20;;
12122;SDS011;6125;59.628;17.852;2023-04-01T08:20:18;3.37;;;1.30;;
12122;SDS011;6125;59.628;17.852;2023-04-01T08:22:57;1.20;;;1.00;;
12122;SDS011;6125;59.628;17.852;2023-04-01T08:25:29;1.67;;;1.07;;
12122;SDS011;6125;59.628;17.852;2023-04-01T08:28:00;13.43;;;2.10;;
12122;SDS011;6125;59.628;17.852;2023-04-01T08:30:37;2.13;;;1.40;;
12122;SDS011;6125;59.628;17.852;2023-04-01T08:33:09;1.33;;;1.20;;
12122;SDS011;6125;59.628;17.852;2023-04-01T08:35:40;3.03;;;1.30;;
12122;SDS011;6125;59.628;17.852;2023-04-01T08:38:13;2.37;;;0.90;;
12122;SDS011;6125;59.628;17.852;2023-04-01T08:40:53;5.90;;;1.93;;
12122;SDS011;6125;59.628;17.852;2023-04-01T08:43:29;1.33;;;1.00;;
12122;SDS011;6125;59.628;17.852;2023-04-01T08:46:17;11.30;;;1.73;;
12122;SDS011;6125;59.628;17.852;2023-04-01T08:49:06;2.03;;;1.20;;
12122;SDS011;6125;59.628;17.852;2023-04-01T08:52:01;1.43;;;0.97;;
12122;SDS011;6125;59.628;17.852;2023-04-01T08:54:46;1.10;;;1.00;;
12122;SDS011;6125;59.628;17.852;2023-04-01T08:57:39;1.10;;;0.83;;
12122;SDS011;6125;59.628;17.852;2023-04-01T09:00:24;2.47;;;1.03;;
12122;SDS011;6125;59.628;17.852;2023-04-01T09:03:00;5.90;;;0.83;;
12122;SDS011;6125;59.628;17.852;2023-04-01T09:09:05;1.67;;;1.20;;
12122;SDS011;6125;59.628;17.852;2023-04-01T09:18:12;1.43;;;0.80;;
12122;SDS011;6125;59.628;17.852;2023-04-01T09:23:59;1.73;;;0.97;;
12122;SDS011;6125;59.628;17.852;2023-04-01T09:27:03;1.27;;;0.90;;
12122;SDS011;6125;59.628;17.852;2023-04-01T09:29:41;3.13;;;0.90;;
12122;SDS011;6125;59.628;17.852;2023-04-01T09:32:42;3.13;;;0.80;;
12122;SDS011;6125;59.628;17.852;2023-04-01T09:35:25;2.43;;;1.03;;
12122;SDS011;6125;59.628;17.852;2023-04-01T09:38:09;3.50;;;0.93;;
12122;SDS011;6125;59.628;17.852;2023-04-01T09:40:50;3.40;;;0.93;;
12122;SDS011;6125;59.628;17.852;2023-04-01T09:43:22;1.00;;;0.80;;
12122;SDS011;6125;59.628;17.852;2023-04-01T09:46:06;2.90;;;1.00;;
12122;SDS011;6125;59.628;17.852;2023-04-01T09:48:56;1.90;;;1.00;;
12122;SDS011;6125;59.628;17.852;2023-04-01T09:51:50;1.97;;;0.90;;
12122;SDS011;6125;59.628;17.852;2023-04-01T09:54:28;2.40;;;0.90;;
12122;SDS011;6125;59.628;17.852;2023-04-01T10:00:20;0.90;;;0.73;;
12122;SDS011;6125;59.628;17.852;2023-04-01T10:06:26;13.27;;;2.00;;
12122;SDS011;6125;59.628;17.852;2023-04-01T10:15:42;3.23;;;0.80;;
12122;SDS011;6125;59.628;17.852;2023-04-01T10:18:38;1.53;;;0.70;;
12122;SDS011;6125;59.628;17.852;2023-04-01T10:24:28;0.87;;;0.63;;
12122;SDS011;6125;59.628;17.852;2023-04-01T10:27:16;1.27;;;0.87;;
12122;SDS011;6125;59.628;17.852;2023-04-01T10:29:59;1.50;;;0.90;;
12122;SDS011;6125;59.628;17.852;2023-04-01T10:33:06;1.43;;;0.60;;
12122;SDS011;6125;59.628;17.852;2023-04-01T10:39:08;15.90;;;1.23;;
12122;SDS011;6125;59.628;17.852;2023-04-01T10:45:42;1.83;;;0.90;;
12122;SDS011;6125;59.628;17.852;2023-04-01T10:48:41;1.93;;;0.80;;
12122;SDS011;6125;59.628;17.852;2023-04-01T10:51:25;2.47;;;0.70;;
12122;SDS011;6125;59.628;17.852;2023-04-01T10:57:20;1.80;;;0.93;;
12122;SDS011;6125;59.628;17.852;2023-04-01T11:00:18;6.53;;;1.13;;
12122;SDS011;6125;59.628;17.852;2023-04-01T11:03:33;2.70;;;0.80;;
12122;SDS011;6125;59.628;17.852;2023-04-01T11:12:49;1.93;;;1.40;;
12122;SDS011;6125;59.628;17.852;2023-04-01T11:15:40;1.40;;;0.90;;
12122;SDS011;6125;59.628;17.852;2023-04-01T11:27:33;0.60;;;0.60;;
12122;SDS011;6125;59.628;17.852;2023-04-01T11:32:57;3.10;;;0.73;;
12122;SDS011;6125;59.628;17.852;2023-04-01T11:35:38;0.83;;;0.53;;
12122;SDS011;6125;59.628;17.852;2023-04-01T11:38:18;2.37;;;0.70;;
12122;SDS011;6125;59.628;17.852;2023-04-01T11:40:54;2.60;;;0.77;;
12122;SDS011;6125;59.628;17.852;2023-04-01T11:43:30;1.70;;;0.60;;
12122;SDS011;6125;59.628;17.852;2023-04-01T11:46:06;2.90;;;0.47;;
12122;SDS011;6125;59.628;17.852;2023-04-01T11:51:29;2.20;;;1.00;;
12122;SDS011;6125;59.628;17.852;2023-04-01T11:54:06;0.60;;;0.60;;
12122;SDS011;6125;59.628;17.852;2023-04-01T11:56:48;2.47;;;0.67;;
12122;SDS011;6125;59.628;17.852;2023-04-01T11:59:31;0.83;;;0.60;;
12122;SDS011;6125;59.628;17.852;2023-04-01T12:02:23;7.33;;;0.90;;
12122;SDS011;6125;59.628;17.852;2023-04-01T12:05:12;1.03;;;0.90;;
12122;SDS011;6125;59.628;17.852;2023-04-01T12:08:04;4.03;;;0.73;;
12122;SDS011;6125;59.628;17.852;2023-04-01T12:10:40;0.50;;;0.43;;
12122;SDS011;6125;59.628;17.852;2023-04-01T12:13:22;2.23;;;0.57;;
12122;SDS011;6125;59.628;17.852;2023-04-01T12:16:09;1.47;;;0.60;;
12122;SDS011;6125;59.628;17.852;2023-04-01T12:18:46;1.43;;;0.57;;
12122;SDS011;6125;59.628;17.852;2023-04-01T12:21:21;1.37;;;0.63;;
12122;SDS011;6125;59.628;17.852;2023-04-01T12:23:57;3.73;;;0.60;;
12122;SDS011;6125;59.628;17.852;2023-04-01T12:27:13;1.93;;;0.70;;
12122;SDS011;6125;59.628;17.852;2023-04-01T12:33:02;0.50;;;0.50;;
12122;SDS011;6125;59.628;17.852;2023-04-01T12:35:45;0.60;;;0.60;;
12122;SDS011;6125;59.628;17.852;2023-04-01T12:38:24;0.57;;;0.57;;
12122;SDS011;6125;59.628;17.852;2023-04-01T12:44:01;0.87;;;0.70;;
12122;SDS011;6125;59.628;17.852;2023-04-01T12:46:48;2.07;;;0.70;;
12122;SDS011;6125;59.628;17.852;2023-04-01T12:49:33;0.63;;;0.63;;
12122;SDS011;6125;59.628;17.852;2023-04-01T12:52:13;1.83;;;0.87;;
12122;SDS011;6125;59.628;17.852;2023-04-01T12:54:57;4.53;;;0.80;;
12122;SDS011;6125;59.628;17.852;2023-04-01T12:57:46;0.53;;;0.50;;
12122;SDS011;6125;59.628;17.852;2023-04-01T13:00:46;1.27;;;0.60;;
12122;SDS011;6125;59.628;17.852;2023-04-01T13:03:36;2.87;;;0.57;;
12122;SDS011;6125;59.628;17.852;2023-04-01T13:06:27;0.83;;;0.57;;
12122;SDS011;6125;59.628;17.852;2023-04-01T13:09:07;2.07;;;0.90;;
12122;SDS011;6125;59.628;17.852;2023-04-01T13:11:50;2.57;;;0.90;;
12122;SDS011;6125;59.628;17.852;2023-04-01T13:14:36;2.73;;;0.70;;
12122;SDS011;6125;59.628;17.852;2023-04-01T13:17:27;2.13;;;0.83;;
12122;SDS011;6125;59.628;17.852;2023-04-01T13:20:02;0.90;;;0.70;;
12122;SDS011;6125;59.628;17.852;2023-04-01T13:22:38;19.13;;;1.70;;
12122;SDS011;6125;59.628;17.852;2023-04-01T13:25:19;1.60;;;0.90;;
12122;SDS011;6125;59.628;17.852;2023-04-01T13:27:55;0.83;;;0.73;;
12122;SDS011;6125;59.628;17.852;2023-04-01T13:30:30;1.10;;;0.70;;
12122;SDS011;6125;59.628;17.852;2023-04-01T13:33:02;4.17;;;1.20;;
12122;SDS011;6125;59.628;17.852;2023-04-01T13:35:41;1.53;;;0.80;;
12122;SDS011;6125;59.628;17.852;2023-04-01T13:38:17;1.60;;;1.03;;
12122;SDS011;6125;59.628;17.852;2023-04-01T13:41:18;1.57;;;0.87;;
12122;SDS011;6125;59.628;17.852;2023-04-01T13:43:57;2.73;;;0.70;;
12122;SDS011;6125;59.628;17.852;2023-04-01T13:46:38;1.10;;;0.67;;
12122;SDS011;6125;59.628;17.852;2023-04-01T13:52:33;0.43;;;0.40;;
12122;SDS011;6125;59.628;17.852;2023-04-01T13:55:29;0.63;;;0.57;;
12122;SDS011;6125;59.628;17.852;2023-04-01T13:58:07;7.53;;;1.57;;
12122;SDS011;6125;59.628;17.852;2023-04-01T14:00:54;0.83;;;0.77;;
12122;SDS011;6125;59.628;17.852;2023-04-01T14:03:37;1.33;;;0.70;;
12122;SDS011;6125;59.628;17.852;2023-04-01T14:06:27;0.60;;;0.60;;
12122;SDS011;6125;59.628;17.852;2023-04-01T14:12:00;2.83;;;0.73;;
12122;SDS011;6125;59.628;17.852;2023-04-01T14:14:40;1.87;;;0.90;;
12122;SDS011;6125;59.628;17.852;2023-04-01T14:17:25;0.87;;;0.70;;
12122;SDS011;6125;59.628;17.852;2023-04-01T14:20:17;1.17;;;0.80;;
12122;SDS011;6125;59.628;17.852;2023-04-01T14:23:01;1.37;;;0.50;;
12122;SDS011;6125;59.628;17.852;2023-04-01T14:28:44;1.03;;;0.80;;
12122;SDS011;6125;59.628;17.852;2023-04-01T14:31:26;2.00;;;0.80;;
12122;SDS011;6125;59.628;17.852;2023-04-01T14:34:21;1.70;;;0.70;;
12122;SDS011;6125;59.628;17.852;2023-04-01T14:37:00;3.37;;;1.20;;
12122;SDS011;6125;59.628;17.852;2023-04-01T14:39:48;4.10;;;0.83;;
12122;SDS011;6125;59.628;17.852;2023-04-01T14:42:52;1.93;;;1.07;;
12122;SDS011;6125;59.628;17.852;2023-04-01T14:45:36;2.70;;;0.83;;
12122;SDS011;6125;59.628;17.852;2023-04-01T14:48:17;4.63;;;1.10;;
12122;SDS011;6125;59.628;17.852;2023-04-01T14:50:52;1.30;;;0.87;;
12122;SDS011;6125;59.628;17.852;2023-04-01T14:53:26;1.50;;;0.70;;
12122;SDS011;6125;59.628;17.852;2023-04-01T14:55:55;3.90;;;0.83;;
12122;SDS011;6125;59.628;17.852;2023-04-01T14:58:24;2.67;;;0.97;;
12122;SDS011;6125;59.628;17.852;2023-04-01T15:00:59;1.50;;;1.00;;
12122;SDS011;6125;59.628;17.852;2023-04-01T15:03:38;2.83;;;1.40;;
12122;SDS011;6125;59.628;17.852;2023-04-01T15:06:26;2.73;;;1.00;;
12122;SDS011;6125;59.628;17.852;2023-04-01T15:09:06;2.43;;;0.90;;
12122;SDS011;6125;59.628;17.852;2023-04-01T15:11:44;3.27;;;1.03;;
12122;SDS011;6125;59.628;17.852;2023-04-01T15:14:23;3.83;;;1.17;;
12122;SDS011;6125;59.628;17.852;2023-04-01T15:20:10;3.37;;;0.93;;
12122;SDS011;6125;59.628;17.852;2023-04-01T15:22:54;3.27;;;1.17;;
12122;SDS011;6125;59.628;17.852;2023-04-01T15:25:35;1.83;;;0.90;;
12122;SDS011;6125;59.628;17.852;2023-04-01T15:28:14;2.13;;;1.20;;
12122;SDS011;6125;59.628;17.852;2023-04-01T15:30:52;3.23;;;1.10;;
12122;SDS011;6125;59.628;17.852;2023-04-01T15:33:36;5.43;;;1.73;;
12122;SDS011;6125;59.628;17.852;2023-04-01T15:36:18;13.37;;;1.40;;
12122;SDS011;6125;59.628;17.852;2023-04-01T15:38:53;1.60;;;0.83;;
12122;SDS011;6125;59.628;17.852;2023-04-01T15:41:27;1.77;;;0.90;;
12122;SDS011;6125;59.628;17.852;2023-04-01T15:44:01;5.37;;;1.20;;
12122;SDS011;6125;59.628;17.852;2023-04-01T15:46:39;5.73;;;1.60;;
12122;SDS011;6125;59.628;17.852;2023-04-01T15:49:13;2.17;;;1.27;;
12122;SDS011;6125;59.628;17.852;2023-04-01T15:52:08;1.67;;;0.90;;
12122;SDS011;6125;59.628;17.852;2023-04-01T15:55:00;1.10;;;0.80;;
12122;SDS011;6125;59.628;17.852;2023-04-01T15:57:49;1.97;;;0.90;;
12122;SDS011;6125;59.628;17.852;2023-04-01T16:00:28;5.00;;;1.10;;
12122;SDS011;6125;59.628;17.852;2023-04-01T16:03:18;0.87;;;0.63;;
12122;SDS011;6125;59.628;17.852;2023-04-01T16:06:01;1.63;;;0.83;;
12122;SDS011;6125;59.628;17.852;2023-04-01T16:11:55;1.93;;;0.80;;
12122;SDS011;6125;59.628;17.852;2023-04-01T16:14:31;0.77;;;0.73;;
12122;SDS011;6125;59.628;17.852;2023-04-01T16:17:12;3.73;;;1.20;;
12122;SDS011;6125;59.628;17.852;2023-04-01T16:19:53;0.90;;;0.90;;
12122;SDS011;6125;59.628;17.852;2023-04-01T16:22:27;2.07;;;0.90;;
12122;SDS011;6125;59.628;17.852;2023-04-01T16:25:01;5.13;;;1.00;;
12122;SDS011;6125;59.628;17.852;2023-04-01T16:27:44;1.53;;;0.97;;
12122;SDS011;6125;59.628;17.852;2023-04-01T16:30:23;2.33;;;1.00;;
12122;SDS011;6125;59.628;17.852;2023-04-01T16:32:59;7.07;;;1.97;;
12122;SDS011;6125;59.628;17.852;2023-04-01T16:35:31;4.50;;;1.03;;
12122;SDS011;6125;59.628;17.852;2023-04-01T16:38:07;2.83;;;1.13;;
12122;SDS011;6125;59.628;17.852;2023-04-01T16:40:42;3.30;;;1.30;;
12122;SDS011;6125;59.628;17.852;2023-04-01T16:43:17;2.90;;;1.20;;
12122;SDS011;6125;59.628;17.852;2023-04-01T16:45:56;6.00;;;2.07;;
12122;SDS011;6125;59.628;17.852;2023-04-01T16:48:50;1.70;;;0.83;;
12122;SDS011;6125;59.628;17.852;2023-04-01T16:51:25;2.73;;;1.33;;
12122;SDS011;6125;59.628;17.852;2023-04-01T16:54:01;2.87;;;1.00;;
12122;SDS011;6125;59.628;17.852;2023-04-01T16:56:36;7.23;;;1.43;;
12122;SDS011;6125;59.628;17.852;2023-04-01T16:59:13;2.73;;;1.10;;
12122;SDS011;6125;59.628;17.852;2023-04-01T17:01:47;2.17;;;0.90;;
12122;SDS011;6125;59.628;17.852;2023-04-01T17:04:19;2.10;;;1.40;;
12122;SDS011;6125;59.628;17.852;2023-04-01T17:06:55;1.67;;;1.10;;
12122;SDS011;6125;59.628;17.852;2023-04-01T17:09:39;6.97;;;1.97;;
12122;SDS011;6125;59.628;17.852;2023-04-01T17:12:19;2.80;;;1.00;;
12122;SDS011;6125;59.628;17.852;2023-04-01T17:14:54;1.70;;;1.10;;